sensor_id;sensor_type;location;lat;lon;timestamp;temperature;humidity
65146;DHT22;51730;56.950;24.126;2022-09-25T00:01:09;9.80;99.90
65146;DHT22;51730;56.950;24.126;2022-09-25T00:03:36;9.80;99.90
65146;DHT22;51730;56.950;24.126;2022-09-25T00:06:19;9.80;99.90
65146;DHT22;51730;56.950;24.126;2022-09-25T00:08:47;9.70;99.90
65146;DHT22;51730;56.950;24.126;2022-09-25T00:11:25;9.70;99.90
65146;DHT22;51730;56.950;24.126;2022-09-25T00:13:56;9.70;99.90
65146;DHT22;51730;56.950;24.126;2022-09-25T00:16:26;9.70;99.90
65146;DHT22;51730;56.950;24.126;2022-09-25T00:18:55;9.70;99.90
65146;DHT22;51730;56.950;24.126;2022-09-25T00:21:41;9.70;99.90
65146;DHT22;51730;56.950;24.126;2022-09-25T00:24:10;9.70;99.90
65146;DHT22;51730;56.950;24.126;2022-09-25T00:26:41;9.70;99.90
65146;DHT22;51730;56.950;24.126;2022-09-25T00:29:16;9.60;99.90
65146;DHT22;51730;56.950;24.126;2022-09-25T00:31:44;9.60;99.90
65146;DHT22;51730;56.950;24.126;2022-09-25T00:34:11;9.60;99.90
65146;DHT22;51730;56.950;24.126;2022-09-25T00:36:38;9.50;99.90
65146;DHT22;51730;56.950;24.126;2022-09-25T00:39:05;9.50;99.90
65146;DHT22;51730;56.950;24.126;2022-09-25T00:41:33;9.60;99.90
65146;DHT22;51730;56.950;24.126;2022-09-25T00:44:02;9.60;99.90
65146;DHT22;51730;56.950;24.126;2022-09-25T00:46:38;9.50;99.90
65146;DHT22;51730;56.950;24.126;2022-09-25T00:49:16;9.50;99.90
65146;DHT22;51730;56.950;24.126;2022-09-25T00:52:02;9.50;99.90
65146;DHT22;51730;56.950;24.126;2022-09-25T00:54:33;9.40;99.90
65146;DHT22;51730;56.950;24.126;2022-09-25T00:57:06;9.40;99.90
65146;DHT22;51730;56.950;24.126;2022-09-25T00:59:43;9.40;99.90
65146;DHT22;51730;56.950;24.126;2022-09-25T01:02:22;9.40;99.90
65146;DHT22;51730;56.950;24.126;2022-09-25T01:04:51;9.40;99.90
65146;DHT22;51730;56.950;24.126;2022-09-25T01:07:18;9.40;99.90
65146;DHT22;51730;56.950;24.126;2022-09-25T01:09:46;9.30;99.90
65146;DHT22;51730;56.950;24.126;2022-09-25T01:12:12;9.40;99.90
65146;DHT22;51730;56.950;24.126;2022-09-25T01:14:39;9.40;99.90
65146;DHT22;51730;56.950;24.126;2022-09-25T01:17:18;9.40;99.90
65146;DHT22;51730;56.950;24.126;2022-09-25T01:25:09;9.30;99.90
65146;DHT22;51730;56.950;24.126;2022-09-25T01:30:10;9.40;99.90
65146;DHT22;51730;56.950;24.126;2022-09-25T01:33:05;9.30;99.90
65146;DHT22;51730;56.950;24.126;2022-09-25T01:40:55;9.30;99.90
65146;DHT22;51730;56.950;24.126;2022-09-25T01:43:29;9.30;99.90
65146;DHT22;51730;56.950;24.126;2022-09-25T01:46:08;9.30;99.90
65146;DHT22;51730;56.950;24.126;2022-09-25T01:48:39;9.30;99.90
65146;DHT22;51730;56.950;24.126;2022-09-25T01:51:14;9.30;99.90
65146;DHT22;51730;56.950;24.126;2022-09-25T01:53:45;9.30;99.90
65146;DHT22;51730;56.950;24.126;2022-09-25T01:56:24;9.30;99.90
65146;DHT22;51730;56.950;24.126;2022-09-25T01:59:07;9.30;99.90
65146;DHT22;51730;56.950;24.126;2022-09-25T02:01:39;9.30;99.90
65146;DHT22;51730;56.950;24.126;2022-09-25T02:04:09;9.30;99.90
65146;DHT22;51730;56.950;24.126;2022-09-25T02:06:38;9.30;99.90
65146;DHT22;51730;56.950;24.126;2022-09-25T02:09:17;9.40;99.90
65146;DHT22;51730;56.950;24.126;2022-09-25T02:11:50;9.40;99.90
65146;DHT22;51730;56.950;24.126;2022-09-25T02:14:32;9.40;99.90
65146;DHT22;51730;56.950;24.126;2022-09-25T02:17:04;9.40;99.90
65146;DHT22;51730;56.950;24.126;2022-09-25T02:19:33;9.40;99.90
65146;DHT22;51730;56.950;24.126;2022-09-25T02:22:23;9.40;99.90
65146;DHT22;51730;56.950;24.126;2022-09-25T02:25:14;9.40;99.90
65146;DHT22;51730;56.950;24.126;2022-09-25T02:27:43;9.40;99.90
65146;DHT22;51730;56.950;24.126;2022-09-25T02:30:11;9.50;99.90
65146;DHT22;51730;56.950;24.126;2022-09-25T02:32:38;9.40;99.90
65146;DHT22;51730;56.950;24.126;2022-09-25T02:35:05;9.50;99.90
65146;DHT22;51730;56.950;24.126;2022-09-25T02:37:32;9.50;99.90
65146;DHT22;51730;56.950;24.126;2022-09-25T02:40:00;9.60;99.90
65146;DHT22;51730;56.950;24.126;2022-09-25T02:42:37;9.70;99.90
65146;DHT22;51730;56.950;24.126;2022-09-25T02:45:37;9.60;99.90
65146;DHT22;51730;56.950;24.126;2022-09-25T02:48:21;9.70;99.90
65146;DHT22;51730;56.950;24.126;2022-09-25T02:51:15;9.70;99.90
65146;DHT22;51730;56.950;24.126;2022-09-25T02:56:27;9.70;99.90
65146;DHT22;51730;56.950;24.126;2022-09-25T02:59:00;9.70;99.90
65146;DHT22;51730;56.950;24.126;2022-09-25T03:01:30;9.80;99.90
65146;DHT22;51730;56.950;24.126;2022-09-25T03:03:58;9.70;99.90
65146;DHT22;51730;56.950;24.126;2022-09-25T03:06:26;9.70;99.90
65146;DHT22;51730;56.950;24.126;2022-09-25T03:08:55;9.70;99.90
65146;DHT22;51730;56.950;24.126;2022-09-25T03:11:24;9.70;99.90
65146;DHT22;51730;56.950;24.126;2022-09-25T03:14:02;9.70;99.90
65146;DHT22;51730;56.950;24.126;2022-09-25T03:16:48;9.70;99.90
65146;DHT22;51730;56.950;24.126;2022-09-25T03:19:17;9.70;99.90
65146;DHT22;51730;56.950;24.126;2022-09-25T03:21:46;9.80;99.90
65146;DHT22;51730;56.950;24.126;2022-09-25T03:24:14;9.80;99.90
65146;DHT22;51730;56.950;24.126;2022-09-25T03:26:42;9.80;99.90
65146;DHT22;51730;56.950;24.126;2022-09-25T03:29:11;9.80;99.90
65146;DHT22;51730;56.950;24.126;2022-09-25T03:31:38;9.80;99.90
65146;DHT22;51730;56.950;24.126;2022-09-25T03:34:07;9.80;99.90
65146;DHT22;51730;56.950;24.126;2022-09-25T03:36:34;9.90;99.90
65146;DHT22;51730;56.950;24.126;2022-09-25T03:39:01;9.90;99.90
65146;DHT22;51730;56.950;24.126;2022-09-25T03:41:30;9.80;99.90
65146;DHT22;51730;56.950;24.126;2022-09-25T03:43:57;9.80;99.90
65146;DHT22;51730;56.950;24.126;2022-09-25T03:46:30;9.80;99.90
65146;DHT22;51730;56.950;24.126;2022-09-25T03:48:57;9.80;99.90
65146;DHT22;51730;56.950;24.126;2022-09-25T03:51:26;9.80;99.90
65146;DHT22;51730;56.950;24.126;2022-09-25T03:53:53;9.80;99.90
65146;DHT22;51730;56.950;24.126;2022-09-25T03:56:23;9.80;99.90
65146;DHT22;51730;56.950;24.126;2022-09-25T03:58:51;9.80;99.90
65146;DHT22;51730;56.950;24.126;2022-09-25T04:01:20;9.80;99.90
65146;DHT22;51730;56.950;24.126;2022-09-25T04:03:48;9.80;99.90
65146;DHT22;51730;56.950;24.126;2022-09-25T04:06:18;9.80;99.90
65146;DHT22;51730;56.950;24.126;2022-09-25T04:08:46;9.70;99.90
65146;DHT22;51730;56.950;24.126;2022-09-25T04:11:15;9.70;99.90
65146;DHT22;51730;56.950;24.126;2022-09-25T04:13:42;9.70;99.90
65146;DHT22;51730;56.950;24.126;2022-09-25T04:16:14;9.70;99.90
65146;DHT22;51730;56.950;24.126;2022-09-25T04:18:42;9.70;99.90
65146;DHT22;51730;56.950;24.126;2022-09-25T04:21:11;9.80;99.90
65146;DHT22;51730;56.950;24.126;2022-09-25T04:23:39;9.80;99.90
65146;DHT22;51730;56.950;24.126;2022-09-25T04:26:07;9.80;99.90
65146;DHT22;51730;56.950;24.126;2022-09-25T04:28:35;9.80;99.90
65146;DHT22;51730;56.950;24.126;2022-09-25T04:31:03;9.90;99.90
65146;DHT22;51730;56.950;24.126;2022-09-25T04:33:30;9.90;99.90
65146;DHT22;51730;56.950;24.126;2022-09-25T04:36:14;9.90;99.90
65146;DHT22;51730;56.950;24.126;2022-09-25T04:38:41;9.90;99.90
65146;DHT22;51730;56.950;24.126;2022-09-25T04:41:10;9.90;99.90
65146;DHT22;51730;56.950;24.126;2022-09-25T04:43:37;10.00;99.90
65146;DHT22;51730;56.950;24.126;2022-09-25T04:46:09;10.00;99.90
65146;DHT22;51730;56.950;24.126;2022-09-25T04:48:43;10.00;99.90
65146;DHT22;51730;56.950;24.126;2022-09-25T04:51:10;10.10;99.90
65146;DHT22;51730;56.950;24.126;2022-09-25T04:53:37;10.00;99.90
65146;DHT22;51730;56.950;24.126;2022-09-25T04:56:07;10.10;99.90
65146;DHT22;51730;56.950;24.126;2022-09-25T04:58:48;10.10;99.90
65146;DHT22;51730;56.950;24.126;2022-09-25T05:01:18;10.10;99.90
65146;DHT22;51730;56.950;24.126;2022-09-25T05:03:49;10.10;99.90
65146;DHT22;51730;56.950;24.126;2022-09-25T05:06:16;10.10;99.90
65146;DHT22;51730;56.950;24.126;2022-09-25T05:08:43;10.10;99.90
65146;DHT22;51730;56.950;24.126;2022-09-25T05:11:12;10.00;99.90
65146;DHT22;51730;56.950;24.126;2022-09-25T05:13:39;10.00;99.90
65146;DHT22;51730;56.950;24.126;2022-09-25T05:16:07;10.00;99.90
65146;DHT22;51730;56.950;24.126;2022-09-25T05:18:34;9.90;99.90
65146;DHT22;51730;56.950;24.126;2022-09-25T05:21:04;9.90;99.90
65146;DHT22;51730;56.950;24.126;2022-09-25T05:23:31;10.00;99.90
65146;DHT22;51730;56.950;24.126;2022-09-25T05:25:58;9.90;99.90
65146;DHT22;51730;56.950;24.126;2022-09-25T05:28:29;10.00;99.90
65146;DHT22;51730;56.950;24.126;2022-09-25T05:30:58;10.10;99.90
65146;DHT22;51730;56.950;24.126;2022-09-25T05:33:32;10.10;99.90
65146;DHT22;51730;56.950;24.126;2022-09-25T05:36:03;10.20;99.90
65146;DHT22;51730;56.950;24.126;2022-09-25T05:38:31;10.20;99.90
65146;DHT22;51730;56.950;24.126;2022-09-25T05:41:07;10.30;99.90
65146;DHT22;51730;56.950;24.126;2022-09-25T05:43:38;10.40;99.90
65146;DHT22;51730;56.950;24.126;2022-09-25T05:46:09;10.40;99.90
65146;DHT22;51730;56.950;24.126;2022-09-25T05:48:36;10.40;99.90
65146;DHT22;51730;56.950;24.126;2022-09-25T05:51:04;10.40;99.90
65146;DHT22;51730;56.950;24.126;2022-09-25T05:53:31;10.50;99.90
65146;DHT22;51730;56.950;24.126;2022-09-25T05:56:01;10.50;99.90
65146;DHT22;51730;56.950;24.126;2022-09-25T05:58:29;10.40;99.90
65146;DHT22;51730;56.950;24.126;2022-09-25T06:01:01;10.50;99.90
65146;DHT22;51730;56.950;24.126;2022-09-25T06:03:29;10.40;99.90
65146;DHT22;51730;56.950;24.126;2022-09-25T06:05:59;10.40;99.90
65146;DHT22;51730;56.950;24.126;2022-09-25T06:08:27;10.40;99.90
65146;DHT22;51730;56.950;24.126;2022-09-25T06:10:57;10.40;99.90
65146;DHT22;51730;56.950;24.126;2022-09-25T06:13:24;10.50;99.90
65146;DHT22;51730;56.950;24.126;2022-09-25T06:15:51;10.50;99.90
65146;DHT22;51730;56.950;24.126;2022-09-25T06:18:20;10.60;99.90
65146;DHT22;51730;56.950;24.126;2022-09-25T06:20:48;10.60;99.90
65146;DHT22;51730;56.950;24.126;2022-09-25T06:23:15;10.60;99.90
65146;DHT22;51730;56.950;24.126;2022-09-25T06:25:43;10.60;99.90
65146;DHT22;51730;56.950;24.126;2022-09-25T06:28:11;10.70;99.90
65146;DHT22;51730;56.950;24.126;2022-09-25T06:30:38;10.70;99.90
65146;DHT22;51730;56.950;24.126;2022-09-25T06:33:09;10.70;99.90
65146;DHT22;51730;56.950;24.126;2022-09-25T06:35:46;10.80;99.90
65146;DHT22;51730;56.950;24.126;2022-09-25T06:38:15;10.80;99.90
65146;DHT22;51730;56.950;24.126;2022-09-25T06:40:42;10.80;99.90
65146;DHT22;51730;56.950;24.126;2022-09-25T06:43:12;10.90;99.90
65146;DHT22;51730;56.950;24.126;2022-09-25T06:45:41;10.90;99.90
65146;DHT22;51730;56.950;24.126;2022-09-25T06:48:13;11.00;99.90
65146;DHT22;51730;56.950;24.126;2022-09-25T06:50:42;11.10;99.90
65146;DHT22;51730;56.950;24.126;2022-09-25T06:53:10;11.10;99.90
65146;DHT22;51730;56.950;24.126;2022-09-25T06:55:37;11.10;99.90
65146;DHT22;51730;56.950;24.126;2022-09-25T06:58:07;11.30;99.90
65146;DHT22;51730;56.950;24.126;2022-09-25T07:00:34;11.50;99.90
65146;DHT22;51730;56.950;24.126;2022-09-25T07:03:01;11.60;99.90
65146;DHT22;51730;56.950;24.126;2022-09-25T07:05:46;11.60;99.90
65146;DHT22;51730;56.950;24.126;2022-09-25T07:08:15;11.80;99.90
65146;DHT22;51730;56.950;24.126;2022-09-25T07:10:49;11.90;99.90
65146;DHT22;51730;56.950;24.126;2022-09-25T07:13:18;11.90;99.90
65146;DHT22;51730;56.950;24.126;2022-09-25T07:15:56;11.90;99.90
65146;DHT22;51730;56.950;24.126;2022-09-25T07:18:25;12.00;99.90
65146;DHT22;51730;56.950;24.126;2022-09-25T07:20:53;12.10;99.90
65146;DHT22;51730;56.950;24.126;2022-09-25T07:23:24;12.10;99.90
65146;DHT22;51730;56.950;24.126;2022-09-25T07:25:51;12.20;99.90
65146;DHT22;51730;56.950;24.126;2022-09-25T07:28:18;12.40;99.90
65146;DHT22;51730;56.950;24.126;2022-09-25T07:30:45;12.30;99.90
65146;DHT22;51730;56.950;24.126;2022-09-25T07:33:12;12.40;99.90
65146;DHT22;51730;56.950;24.126;2022-09-25T07:35:39;12.50;99.90
65146;DHT22;51730;56.950;24.126;2022-09-25T07:38:07;12.70;99.90
65146;DHT22;51730;56.950;24.126;2022-09-25T07:40:33;12.80;99.90
65146;DHT22;51730;56.950;24.126;2022-09-25T07:43:01;12.80;99.90
65146;DHT22;51730;56.950;24.126;2022-09-25T07:45:29;12.90;99.90
65146;DHT22;51730;56.950;24.126;2022-09-25T07:48:00;13.10;99.90
65146;DHT22;51730;56.950;24.126;2022-09-25T07:50:29;13.20;99.90
65146;DHT22;51730;56.950;24.126;2022-09-25T07:52:56;13.10;99.90
65146;DHT22;51730;56.950;24.126;2022-09-25T07:55:24;13.40;99.90
65146;DHT22;51730;56.950;24.126;2022-09-25T07:57:52;13.60;99.90
65146;DHT22;51730;56.950;24.126;2022-09-25T08:00:21;13.70;99.90
65146;DHT22;51730;56.950;24.126;2022-09-25T08:02:56;13.80;99.90
65146;DHT22;51730;56.950;24.126;2022-09-25T08:05:24;13.50;99.90
65146;DHT22;51730;56.950;24.126;2022-09-25T08:07:52;13.60;99.90
65146;DHT22;51730;56.950;24.126;2022-09-25T08:10:19;13.70;99.90
65146;DHT22;51730;56.950;24.126;2022-09-25T08:12:46;13.60;99.90
65146;DHT22;51730;56.950;24.126;2022-09-25T08:15:13;13.70;99.90
65146;DHT22;51730;56.950;24.126;2022-09-25T08:17:41;13.80;99.90
65146;DHT22;51730;56.950;24.126;2022-09-25T08:20:08;14.40;99.90
65146;DHT22;51730;56.950;24.126;2022-09-25T08:22:35;14.20;99.90
65146;DHT22;51730;56.950;24.126;2022-09-25T08:25:02;14.10;99.90
65146;DHT22;51730;56.950;24.126;2022-09-25T08:27:30;14.30;99.90
65146;DHT22;51730;56.950;24.126;2022-09-25T08:29:57;14.50;98.80
65146;DHT22;51730;56.950;24.126;2022-09-25T08:32:24;14.20;99.90
65146;DHT22;51730;56.950;24.126;2022-09-25T08:34:51;14.00;99.90
65146;DHT22;51730;56.950;24.126;2022-09-25T08:37:18;13.80;99.90
65146;DHT22;51730;56.950;24.126;2022-09-25T08:39:46;13.70;99.90
65146;DHT22;51730;56.950;24.126;2022-09-25T08:42:21;14.10;98.40
65146;DHT22;51730;56.950;24.126;2022-09-25T08:44:52;14.30;96.30
65146;DHT22;51730;56.950;24.126;2022-09-25T08:47:50;14.70;91.00
65146;DHT22;51730;56.950;24.126;2022-09-25T08:50:36;14.50;91.50
65146;DHT22;51730;56.950;24.126;2022-09-25T08:53:14;15.00;80.80
65146;DHT22;51730;56.950;24.126;2022-09-25T08:55:43;15.10;81.90
65146;DHT22;51730;56.950;24.126;2022-09-25T08:58:32;15.30;77.40
65146;DHT22;51730;56.950;24.126;2022-09-25T09:01:03;15.30;75.10
65146;DHT22;51730;56.950;24.126;2022-09-25T09:03:32;15.40;80.00
65146;DHT22;51730;56.950;24.126;2022-09-25T09:06:11;15.50;76.70
65146;DHT22;51730;56.950;24.126;2022-09-25T09:08:41;15.40;77.40
65146;DHT22;51730;56.950;24.126;2022-09-25T09:11:14;15.30;76.20
65146;DHT22;51730;56.950;24.126;2022-09-25T09:14:17;15.40;75.30
65146;DHT22;51730;56.950;24.126;2022-09-25T09:16:59;15.60;72.50
65146;DHT22;51730;56.950;24.126;2022-09-25T09:19:26;15.30;75.40
65146;DHT22;51730;56.950;24.126;2022-09-25T09:22:13;15.20;76.40
65146;DHT22;51730;56.950;24.126;2022-09-25T09:35:55;15.30;76.70
65146;DHT22;51730;56.950;24.126;2022-09-25T09:49:35;15.40;71.90
65146;DHT22;51730;56.950;24.126;2022-09-25T09:52:09;15.00;73.70
65146;DHT22;51730;56.950;24.126;2022-09-25T09:55:19;15.20;70.90
65146;DHT22;51730;56.950;24.126;2022-09-25T09:57:53;15.20;71.80
65146;DHT22;51730;56.950;24.126;2022-09-25T10:00:21;14.90;72.90
65146;DHT22;51730;56.950;24.126;2022-09-25T10:03:16;14.80;74.80
65146;DHT22;51730;56.950;24.126;2022-09-25T10:05:48;14.60;75.30
65146;DHT22;51730;56.950;24.126;2022-09-25T10:08:15;14.50;74.90
65146;DHT22;51730;56.950;24.126;2022-09-25T10:10:45;14.70;74.20
65146;DHT22;51730;56.950;24.126;2022-09-25T10:13:18;14.60;76.10
65146;DHT22;51730;56.950;24.126;2022-09-25T10:15:56;14.70;75.80
65146;DHT22;51730;56.950;24.126;2022-09-25T10:18:28;14.50;77.10
65146;DHT22;51730;56.950;24.126;2022-09-25T10:23:45;14.20;79.70
65146;DHT22;51730;56.950;24.126;2022-09-25T10:26:29;14.30;78.20
65146;DHT22;51730;56.950;24.126;2022-09-25T10:28:58;14.20;81.90
65146;DHT22;51730;56.950;24.126;2022-09-25T10:31:31;14.30;85.00
65146;DHT22;51730;56.950;24.126;2022-09-25T10:34:01;14.40;84.80
65146;DHT22;51730;56.950;24.126;2022-09-25T10:36:35;14.80;83.10
65146;DHT22;51730;56.950;24.126;2022-09-25T10:39:04;14.80;82.60
65146;DHT22;51730;56.950;24.126;2022-09-25T10:41:53;14.90;82.40
65146;DHT22;51730;56.950;24.126;2022-09-25T10:44:40;14.70;78.70
65146;DHT22;51730;56.950;24.126;2022-09-25T10:47:30;14.70;77.30
65146;DHT22;51730;56.950;24.126;2022-09-25T10:50:23;14.30;77.30
65146;DHT22;51730;56.950;24.126;2022-09-25T10:52:54;14.10;77.20
65146;DHT22;51730;56.950;24.126;2022-09-25T10:58:29;13.80;78.60
65146;DHT22;51730;56.950;24.126;2022-09-25T11:01:00;14.00;71.90
65146;DHT22;51730;56.950;24.126;2022-09-25T11:03:59;14.10;75.40
65146;DHT22;51730;56.950;24.126;2022-09-25T11:06:29;14.20;80.10
65146;DHT22;51730;56.950;24.126;2022-09-25T11:09:12;14.30;81.40
65146;DHT22;51730;56.950;24.126;2022-09-25T11:11:40;14.40;82.20
65146;DHT22;51730;56.950;24.126;2022-09-25T11:14:17;14.30;86.60
65146;DHT22;51730;56.950;24.126;2022-09-25T11:16:52;14.20;91.20
65146;DHT22;51730;56.950;24.126;2022-09-25T11:22:25;14.50;92.80
65146;DHT22;51730;56.950;24.126;2022-09-25T11:24:59;14.80;89.00
65146;DHT22;51730;56.950;24.126;2022-09-25T11:27:37;14.80;91.40
65146;DHT22;51730;56.950;24.126;2022-09-25T11:30:17;14.90;87.30
65146;DHT22;51730;56.950;24.126;2022-09-25T11:33:12;15.10;83.30
65146;DHT22;51730;56.950;24.126;2022-09-25T11:36:01;15.00;84.40
65146;DHT22;51730;56.950;24.126;2022-09-25T11:38:36;15.10;83.50
65146;DHT22;51730;56.950;24.126;2022-09-25T11:49:54;15.00;75.80
65146;DHT22;51730;56.950;24.126;2022-09-25T11:52:51;15.10;74.80
65146;DHT22;51730;56.950;24.126;2022-09-25T11:56:02;15.20;75.10
65146;DHT22;51730;56.950;24.126;2022-09-25T12:09:27;14.90;70.90
65146;DHT22;51730;56.950;24.126;2022-09-25T12:18:02;15.00;71.10
65146;DHT22;51730;56.950;24.126;2022-09-25T12:23:32;14.90;72.40
65146;DHT22;51730;56.950;24.126;2022-09-25T12:26:33;14.90;72.20
65146;DHT22;51730;56.950;24.126;2022-09-25T12:29:29;14.90;71.10
65146;DHT22;51730;56.950;24.126;2022-09-25T12:35:12;14.70;72.90
65146;DHT22;51730;56.950;24.126;2022-09-25T12:37:43;14.90;73.00
65146;DHT22;51730;56.950;24.126;2022-09-25T12:43:11;15.10;72.90
65146;DHT22;51730;56.950;24.126;2022-09-25T12:45:53;15.00;71.70
65146;DHT22;51730;56.950;24.126;2022-09-25T12:48:42;14.90;72.50
65146;DHT22;51730;56.950;24.126;2022-09-25T12:51:23;14.80;72.70
65146;DHT22;51730;56.950;24.126;2022-09-25T12:54:05;14.80;72.90
65146;DHT22;51730;56.950;24.126;2022-09-25T12:56:50;14.80;73.90
65146;DHT22;51730;56.950;24.126;2022-09-25T12:59:31;14.90;82.90
65146;DHT22;51730;56.950;24.126;2022-09-25T13:05:04;15.10;73.30
65146;DHT22;51730;56.950;24.126;2022-09-25T13:12:53;14.90;68.70
65146;DHT22;51730;56.950;24.126;2022-09-25T13:15:24;14.60;68.10
65146;DHT22;51730;56.950;24.126;2022-09-25T13:17:51;14.60;69.70
65146;DHT22;51730;56.950;24.126;2022-09-25T13:23:29;15.20;63.20
65146;DHT22;51730;56.950;24.126;2022-09-25T13:26:32;15.30;62.60
65146;DHT22;51730;56.950;24.126;2022-09-25T13:29:26;15.20;59.90
65146;DHT22;51730;56.950;24.126;2022-09-25T13:32:11;14.70;59.50
65146;DHT22;51730;56.950;24.126;2022-09-25T13:34:41;14.50;60.70
65146;DHT22;51730;56.950;24.126;2022-09-25T13:37:10;14.30;61.50
65146;DHT22;51730;56.950;24.126;2022-09-25T13:39:46;14.70;64.40
65146;DHT22;51730;56.950;24.126;2022-09-25T13:42:36;15.10;64.40
65146;DHT22;51730;56.950;24.126;2022-09-25T13:45:33;15.20;61.60
65146;DHT22;51730;56.950;24.126;2022-09-25T13:58:30;15.40;59.70
65146;DHT22;51730;56.950;24.126;2022-09-25T14:01:00;15.00;61.00
65146;DHT22;51730;56.950;24.126;2022-09-25T14:03:44;14.80;62.40
65146;DHT22;51730;56.950;24.126;2022-09-25T14:06:27;14.60;66.10
65146;DHT22;51730;56.950;24.126;2022-09-25T14:09:16;14.70;65.70
65146;DHT22;51730;56.950;24.126;2022-09-25T14:14:34;14.90;64.50
65146;DHT22;51730;56.950;24.126;2022-09-25T14:17:03;14.80;65.70
65146;DHT22;51730;56.950;24.126;2022-09-25T14:19:33;14.90;65.10
65146;DHT22;51730;56.950;24.126;2022-09-25T14:22:03;15.00;63.60
65146;DHT22;51730;56.950;24.126;2022-09-25T14:24:30;14.80;63.80
65146;DHT22;51730;56.950;24.126;2022-09-25T14:26:59;14.80;64.50
65146;DHT22;51730;56.950;24.126;2022-09-25T14:29:44;14.80;65.90
65146;DHT22;51730;56.950;24.126;2022-09-25T14:35:43;15.00;66.00
65146;DHT22;51730;56.950;24.126;2022-09-25T14:40:39;14.60;65.40
65146;DHT22;51730;56.950;24.126;2022-09-25T14:46:05;14.40;68.90
65146;DHT22;51730;56.950;24.126;2022-09-25T14:51:25;14.20;69.40
65146;DHT22;51730;56.950;24.126;2022-09-25T14:54:00;14.10;70.70
65146;DHT22;51730;56.950;24.126;2022-09-25T14:56:28;14.20;72.20
65146;DHT22;51730;56.950;24.126;2022-09-25T14:59:09;14.00;71.00
65146;DHT22;51730;56.950;24.126;2022-09-25T15:01:45;14.00;71.70
65146;DHT22;51730;56.950;24.126;2022-09-25T15:04:27;14.10;70.30
65146;DHT22;51730;56.950;24.126;2022-09-25T15:07:00;14.10;71.40
65146;DHT22;51730;56.950;24.126;2022-09-25T15:09:38;13.90;71.50
65146;DHT22;51730;56.950;24.126;2022-09-25T15:12:20;13.80;72.80
65146;DHT22;51730;56.950;24.126;2022-09-25T15:15:05;13.90;70.90
65146;DHT22;51730;56.950;24.126;2022-09-25T15:17:37;14.10;69.50
65146;DHT22;51730;56.950;24.126;2022-09-25T15:20:12;14.00;70.90
65146;DHT22;51730;56.950;24.126;2022-09-25T15:22:42;13.80;73.10
65146;DHT22;51730;56.950;24.126;2022-09-25T15:25:17;13.70;74.30
65146;DHT22;51730;56.950;24.126;2022-09-25T15:27:46;13.60;75.30
65146;DHT22;51730;56.950;24.126;2022-09-25T15:30:15;13.60;77.00
65146;DHT22;51730;56.950;24.126;2022-09-25T15:32:42;13.50;77.40
65146;DHT22;51730;56.950;24.126;2022-09-25T15:35:16;13.50;78.60
65146;DHT22;51730;56.950;24.126;2022-09-25T15:37:46;13.50;79.80
65146;DHT22;51730;56.950;24.126;2022-09-25T15:42:43;13.60;83.50
65146;DHT22;51730;56.950;24.126;2022-09-25T15:48:32;13.80;80.60
65146;DHT22;51730;56.950;24.126;2022-09-25T15:51:01;14.00;78.40
65146;DHT22;51730;56.950;24.126;2022-09-25T15:53:31;14.00;76.10
65146;DHT22;51730;56.950;24.126;2022-09-25T15:56:21;14.00;75.90
65146;DHT22;51730;56.950;24.126;2022-09-25T15:59:04;13.80;78.60
65146;DHT22;51730;56.950;24.126;2022-09-25T16:01:33;13.60;78.60
65146;DHT22;51730;56.950;24.126;2022-09-25T16:04:21;13.70;80.30
65146;DHT22;51730;56.950;24.126;2022-09-25T16:07:35;13.60;80.00
65146;DHT22;51730;56.950;24.126;2022-09-25T16:12:46;13.60;79.60
65146;DHT22;51730;56.950;24.126;2022-09-25T16:18:01;13.50;80.00
65146;DHT22;51730;56.950;24.126;2022-09-25T16:20:32;13.40;80.40
65146;DHT22;51730;56.950;24.126;2022-09-25T16:23:03;13.50;81.40
65146;DHT22;51730;56.950;24.126;2022-09-25T16:25:36;13.40;81.10
65146;DHT22;51730;56.950;24.126;2022-09-25T16:28:22;13.40;81.30
65146;DHT22;51730;56.950;24.126;2022-09-25T16:33:36;13.40;80.60
65146;DHT22;51730;56.950;24.126;2022-09-25T16:36:06;13.40;79.80
65146;DHT22;51730;56.950;24.126;2022-09-25T16:41:36;13.30;77.70
65146;DHT22;51730;56.950;24.126;2022-09-25T16:49:23;13.30;78.30
65146;DHT22;51730;56.950;24.126;2022-09-25T16:51:52;13.30;80.10
65146;DHT22;51730;56.950;24.126;2022-09-25T16:54:20;13.30;79.50
65146;DHT22;51730;56.950;24.126;2022-09-25T16:56:48;13.30;80.50
65146;DHT22;51730;56.950;24.126;2022-09-25T17:01:42;13.30;80.40
65146;DHT22;51730;56.950;24.126;2022-09-25T17:04:11;13.30;80.80
65146;DHT22;51730;56.950;24.126;2022-09-25T17:06:38;13.30;81.10
65146;DHT22;51730;56.950;24.126;2022-09-25T17:09:10;13.30;82.00
65146;DHT22;51730;56.950;24.126;2022-09-25T17:11:39;13.30;81.70
65146;DHT22;51730;56.950;24.126;2022-09-25T17:14:22;13.30;79.30
65146;DHT22;51730;56.950;24.126;2022-09-25T17:16:50;13.10;79.20
65146;DHT22;51730;56.950;24.126;2022-09-25T17:19:18;13.20;81.70
65146;DHT22;51730;56.950;24.126;2022-09-25T17:21:47;13.10;79.90
65146;DHT22;51730;56.950;24.126;2022-09-25T17:24:18;13.10;82.10
65146;DHT22;51730;56.950;24.126;2022-09-25T17:26:46;13.00;81.30
65146;DHT22;51730;56.950;24.126;2022-09-25T17:29:13;13.00;82.80
65146;DHT22;51730;56.950;24.126;2022-09-25T17:31:40;13.00;82.90
65146;DHT22;51730;56.950;24.126;2022-09-25T17:34:18;13.00;84.90
65146;DHT22;51730;56.950;24.126;2022-09-25T17:36:46;12.90;84.90
65146;DHT22;51730;56.950;24.126;2022-09-25T17:39:13;12.90;85.50
65146;DHT22;51730;56.950;24.126;2022-09-25T17:41:40;12.90;86.00
65146;DHT22;51730;56.950;24.126;2022-09-25T17:44:16;12.90;86.90
65146;DHT22;51730;56.950;24.126;2022-09-25T17:46:43;12.90;88.10
65146;DHT22;51730;56.950;24.126;2022-09-25T17:49:10;12.80;89.50
65146;DHT22;51730;56.950;24.126;2022-09-25T17:51:38;12.90;88.50
65146;DHT22;51730;56.950;24.126;2022-09-25T17:54:05;12.80;89.40
65146;DHT22;51730;56.950;24.126;2022-09-25T17:56:32;12.80;89.60
65146;DHT22;51730;56.950;24.126;2022-09-25T17:59:03;12.90;90.70
65146;DHT22;51730;56.950;24.126;2022-09-25T18:01:32;12.90;90.70
65146;DHT22;51730;56.950;24.126;2022-09-25T18:06:44;12.90;91.20
65146;DHT22;51730;56.950;24.126;2022-09-25T18:09:10;12.90;91.90
65146;DHT22;51730;56.950;24.126;2022-09-25T18:11:37;13.00;92.40
65146;DHT22;51730;56.950;24.126;2022-09-25T18:14:13;13.00;92.40
65146;DHT22;51730;56.950;24.126;2022-09-25T18:16:41;13.00;93.00
65146;DHT22;51730;56.950;24.126;2022-09-25T18:19:14;13.00;93.40
65146;DHT22;51730;56.950;24.126;2022-09-25T18:22:00;13.00;93.90